Historyczne dane pomiarowe

Dodano dane terminowe – wersja testowa.

Dane z okresu 1951-2019

Wersja bazy: 1.34 [2019-03-16, lista zmian], aktualizacja planowana na 2019-04-15

Dane meteo z obszaru Polski uzyskane na podstawie danych udostępnionych przez Instytut Meteorologii i Gospodarki Wodnej – Państwowy Instytut Badawczy.

 

Wybierz Datę:    

       

TemperaturaWilgotnośćWiatrCiśnienieOpadyŚniegCzas trwania zjawisk
 Stacja t tx tn tng RH VA  wxwx mslp ppp RRR   cm mm wxwxwxwxwxwxwx
1961-08-14 12.3 18.3 7.9- 91.0- 2.7 0.3---- 0.0------------
1961-08-13 12.3 18.3 10.8- 99.3- 8.0 1.3---- 11.8------------
1961-08-12 19.5 25.2 14.6- 92.3- 5.0 1.0---- 10.5------------
1961-08-11 23.6 32.0 20.4- 84.5- 2.7 3.3---- 0.3------------
1961-08-10 25.9 31.2 16.3- 69.0- 0.3 1.0---- 0.0------------
1961-08-09 21.7 29.0 16.5- 88.0- 2.7 0.3---- 3.1------------
1961-08-08 21.0 27.1 16.7- 87.8- 2.3 1.0---- 0.0------------
1961-08-07 24.2 28.9 19.6- 64.3- 1.3 4.7---- 0.0------------
1961-08-06 23.0 27.3 12.2- 64.3- 0.0 3.7---- 0.0------------
1961-08-05 16.8 23.6 12.1- 83.8- 4.3 0.3---- 0.0------------
1961-08-04 14.7 20.1 12.4- 88.0- 4.0 0.3---- 0.0------------
1961-08-03 17.3 24.6 11.7- 85.3- 5.7 0.7---- 1.0------------
1961-08-02 17.6 23.6 11.4- 78.8- 0.0 1.0---- 0.0------------
1961-08-01 16.2 20.9 11.0- 77.3- 4.0 1.3---- 0.0------------
1961-07-31 13.3 17.5 9.6- 89.5- 5.3 1.7---- 1.2------------
1961-07-30 10.9 12.9 9.7- 99.3- 8.0 1.0---- 20.8------------
1961-07-29 13.2 21.9 11.0- 98.0- 7.7 0.7---- 42.2------------
1961-07-28 20.1 27.9 16.3- 90.5- 4.0 5.3---- 0.5------------
1961-07-27 19.2 25.2 13.6- 89.3- 3.3 3.0---- 0.0------------
1961-07-26 15.4 21.0 7.8- 81.5- 5.0 0.3---- 0.0------------
1961-07-25 12.3 16.2 10.1- 90.0- 6.7 1.0---- 0.0------------
1961-07-24 14.6 19.0 11.6- 85.0- 7.7 1.0---- 0.0------------
1961-07-23 15.6 20.4 8.9- 91.0- 7.3 0.3---- 0.0------------
1961-07-22 14.4 17.9 11.1- 94.8- 6.3 0.3---- 0.2------------
1961-07-21 14.3 19.3 9.1- 92.5- 3.3 0.3---- 7.9------------
1961-07-20 13.7 17.3 9.1- 93.3- 7.7 0.7---- 18.8------------
1961-07-19 13.9 19.7 8.5- 94.3- 5.3 0.0---- 2.4------------
1961-07-18 13.8 19.9 8.8- 88.3- 2.3 1.0---- 0.0------------
1961-07-17 15.9 22.2 12.8- 92.0- 6.7 0.3---- 0.2------------
1961-07-16 16.6 23.8 14.2- 92.8- 6.3 1.0---- 4.1------------
1961-07-15 18.1 22.9 10.4- 69.0- 4.0 3.0---- 0.0------------
1961-07-14 12.9 18.2 10.6- 89.3- 5.3 0.0---- 3.5------------
1961-07-13 19.6 28.5 16.6- 95.3- 4.3 2.7---- 4.9------------
1961-07-12 21.2 26.1 12.5- 80.5- 1.7 5.0---- 0.0------------
1961-07-11 14.6 20.4 6.9- 79.8- 2.7 0.7---- 0.0------------
1961-07-10 14.0 20.4 10.5- 90.5- 6.7 2.0---- 0.9------------
1961-07-09 15.8 23.8 7.8- 86.8- 6.0 0.7---- 1.7------------
1961-07-08 14.5 20.7 9.7- 86.5- 2.0 0.3---- 0.0------------
1961-07-07 13.7 18.5 5.1- 86.3- 6.0 0.7---- 0.0------------
1961-07-06 11.2 17.3 7.3- 86.3- 2.3 0.7---- 0.0------------
1961-07-05 14.1 19.7 11.0- 93.8- 7.7 0.3---- 0.8------------
1961-07-04 22.7 30.7 15.6- 81.0- 4.7 1.3---- 0.0------------
1961-07-03 20.6 29.0 10.4- 80.8- 0.0 0.3---- 0.0------------
1961-07-02 18.9 26.7 10.5- 81.3- 0.0 0.3---- 0.0------------
1961-07-01 18.8 25.0 9.7- 83.5- 3.0 0.3---- 0.0------------
1961-06-30 15.2 21.6 10.7- 85.8- 4.0 1.0---- 0.0------------
1961-06-29 14.1 18.5 6.0- 83.5- 2.7 1.7---- 0.0------------
1961-06-28 13.2 25.4 9.8- 98.3- 6.3 0.7---- 5.6------------
1961-06-27 25.7 29.8 14.8- 74.5- 2.7 2.7---- 13.8------------
1961-06-26 21.6 28.9 15.8- 80.5- 1.3 2.3---- 0.0------------
1961-06-25 23.0 27.6 10.1- 67.8- 0.0 1.0---- 0.0------------
1961-06-24 18.5 25.5 10.6- 77.3- 2.3 0.7---- 0.0------------
1961-06-23 16.2 22.4 13.4- 92.3- 6.7 0.3---- 2.3------------
1961-06-22 17.9 24.3 10.7- 77.8- 2.0 1.3---- 4.6------------
1961-06-21 16.3 22.8 6.0- 82.0- 2.7 0.7---- 0.0------------
1961-06-20 14.4 20.5 11.1- 84.3- 3.3 1.7---- 0.0------------
1961-06-19 20.3 28.1 13.8- 81.3- 3.7 1.3---- 1.9------------
1961-06-18 18.6 25.4 8.6- 73.3- 1.7 0.7---- 0.0------------
1961-06-17 14.1 21.1 6.5- 78.8- 1.0 0.3---- 0.0------------
1961-06-16 12.9 19.0 8.6- 84.3- 1.3 0.7---- 0.0------------
421.0 ms

 

Źródłem pochodzenia danych jest Instytut Meteorologii i Gospodarki Wodnej – Państwowy Instytut Badawczy. Dane Instytutu Meteorologii i Gospodarki Wodnej – Państwowego Instytutu Badawczego zostały przetworzone.

Dane źródłowe można odnaleźć na stronie https://dane.imgw.pl